sensor_id;sensor_type;location;lat;lon;timestamp;P1;durP1;ratioP1;P2;durP2;ratioP2
64031;SDS011;50278;47.796;11.968;2023-03-03T00:00:27;28.08;;;18.17;;
64031;SDS011;50278;47.796;11.968;2023-03-03T00:02:52;23.50;;;16.77;;
64031;SDS011;50278;47.796;11.968;2023-03-03T00:05:18;26.95;;;18.10;;
64031;SDS011;50278;47.796;11.968;2023-03-03T00:07:43;28.55;;;17.88;;
64031;SDS011;50278;47.796;11.968;2023-03-03T00:10:10;27.48;;;18.67;;
64031;SDS011;50278;47.796;11.968;2023-03-03T00:12:37;28.20;;;18.90;;
64031;SDS011;50278;47.796;11.968;2023-03-03T00:15:14;29.02;;;20.10;;
64031;SDS011;50278;47.796;11.968;2023-03-03T00:17:41;29.30;;;19.48;;
64031;SDS011;50278;47.796;11.968;2023-03-03T00:20:29;29.80;;;19.10;;
64031;SDS011;50278;47.796;11.968;2023-03-03T00:23:11;31.63;;;20.08;;
64031;SDS011;50278;47.796;11.968;2023-03-03T00:25:44;30.30;;;20.73;;
64031;SDS011;50278;47.796;11.968;2023-03-03T00:28:16;31.85;;;20.33;;
64031;SDS011;50278;47.796;11.968;2023-03-03T00:30:51;28.15;;;18.67;;
64031;SDS011;50278;47.796;11.968;2023-03-03T00:33:23;26.52;;;18.65;;
64031;SDS011;50278;47.796;11.968;2023-03-03T00:35:53;30.25;;;19.23;;
64031;SDS011;50278;47.796;11.968;2023-03-03T00:38:21;27.58;;;18.98;;
64031;SDS011;50278;47.796;11.968;2023-03-03T00:40:48;32.13;;;19.23;;
64031;SDS011;50278;47.796;11.968;2023-03-03T00:45:56;28.83;;;18.92;;
64031;SDS011;50278;47.796;11.968;2023-03-03T00:50:50;25.73;;;18.40;;
64031;SDS011;50278;47.796;11.968;2023-03-03T00:53:18;26.88;;;17.70;;
64031;SDS011;50278;47.796;11.968;2023-03-03T00:55:46;26.85;;;16.67;;
64031;SDS011;50278;47.796;11.968;2023-03-03T00:58:13;25.10;;;17.08;;
64031;SDS011;50278;47.796;11.968;2023-03-03T01:00:43;27.50;;;17.25;;
64031;SDS011;50278;47.796;11.968;2023-03-03T01:03:12;25.38;;;16.80;;
64031;SDS011;50278;47.796;11.968;2023-03-03T01:05:40;26.00;;;17.05;;
64031;SDS011;50278;47.796;11.968;2023-03-03T01:08:06;24.73;;;17.65;;
64031;SDS011;50278;47.796;11.968;2023-03-03T01:10:33;24.95;;;16.25;;
64031;SDS011;50278;47.796;11.968;2023-03-03T01:13:02;24.27;;;16.10;;
64031;SDS011;50278;47.796;11.968;2023-03-03T01:15:28;24.48;;;16.45;;
64031;SDS011;50278;47.796;11.968;2023-03-03T01:17:54;23.58;;;16.05;;
64031;SDS011;50278;47.796;11.968;2023-03-03T01:20:20;23.00;;;15.85;;
64031;SDS011;50278;47.796;11.968;2023-03-03T01:22:46;23.58;;;15.35;;
64031;SDS011;50278;47.796;11.968;2023-03-03T01:25:11;25.17;;;16.92;;
64031;SDS011;50278;47.796;11.968;2023-03-03T01:27:37;23.13;;;15.70;;
64031;SDS011;50278;47.796;11.968;2023-03-03T01:30:03;23.50;;;15.70;;
64031;SDS011;50278;47.796;11.968;2023-03-03T01:32:29;22.83;;;15.02;;
64031;SDS011;50278;47.796;11.968;2023-03-03T01:34:55;22.98;;;14.98;;
64031;SDS011;50278;47.796;11.968;2023-03-03T01:37:21;23.02;;;15.50;;
64031;SDS011;50278;47.796;11.968;2023-03-03T01:39:47;22.20;;;14.57;;
64031;SDS011;50278;47.796;11.968;2023-03-03T01:42:17;23.67;;;15.77;;
64031;SDS011;50278;47.796;11.968;2023-03-03T01:44:43;22.55;;;14.68;;
64031;SDS011;50278;47.796;11.968;2023-03-03T01:49:57;22.05;;;15.30;;
64031;SDS011;50278;47.796;11.968;2023-03-03T01:52:32;22.17;;;15.40;;
64031;SDS011;50278;47.796;11.968;2023-03-03T01:55:12;24.52;;;15.57;;
64031;SDS011;50278;47.796;11.968;2023-03-03T01:57:43;22.52;;;14.75;;
64031;SDS011;50278;47.796;11.968;2023-03-03T02:00:12;25.80;;;15.80;;
64031;SDS011;50278;47.796;11.968;2023-03-03T02:02:39;24.27;;;16.23;;
64031;SDS011;50278;47.796;11.968;2023-03-03T02:05:06;27.52;;;17.13;;
64031;SDS011;50278;47.796;11.968;2023-03-03T02:07:32;26.38;;;17.40;;
64031;SDS011;50278;47.796;11.968;2023-03-03T02:12:38;25.83;;;16.33;;
64031;SDS011;50278;47.796;11.968;2023-03-03T02:17:42;27.65;;;15.18;;
64031;SDS011;50278;47.796;11.968;2023-03-03T02:20:11;24.77;;;16.33;;
64031;SDS011;50278;47.796;11.968;2023-03-03T02:23:19;24.58;;;15.68;;
64031;SDS011;50278;47.796;11.968;2023-03-03T02:25:58;23.42;;;15.43;;
64031;SDS011;50278;47.796;11.968;2023-03-03T02:28:49;23.98;;;15.25;;
64031;SDS011;50278;47.796;11.968;2023-03-03T02:31:18;25.67;;;16.15;;
64031;SDS011;50278;47.796;11.968;2023-03-03T02:33:46;25.58;;;16.02;;
64031;SDS011;50278;47.796;11.968;2023-03-03T02:36:15;24.35;;;16.25;;
64031;SDS011;50278;47.796;11.968;2023-03-03T02:41:44;24.08;;;15.77;;
64031;SDS011;50278;47.796;11.968;2023-03-03T02:44:31;26.13;;;16.45;;
64031;SDS011;50278;47.796;11.968;2023-03-03T02:46:58;29.13;;;17.75;;
64031;SDS011;50278;47.796;11.968;2023-03-03T02:49:31;29.05;;;17.05;;
64031;SDS011;50278;47.796;11.968;2023-03-03T02:51:59;26.23;;;16.05;;
64031;SDS011;50278;47.796;11.968;2023-03-03T02:54:26;24.13;;;15.30;;
64031;SDS011;50278;47.796;11.968;2023-03-03T02:56:54;25.58;;;17.30;;
64031;SDS011;50278;47.796;11.968;2023-03-03T02:59:20;24.92;;;16.00;;
64031;SDS011;50278;47.796;11.968;2023-03-03T03:01:47;26.70;;;16.67;;
64031;SDS011;50278;47.796;11.968;2023-03-03T03:04:25;23.50;;;14.88;;
64031;SDS011;50278;47.796;11.968;2023-03-03T03:06:53;27.80;;;17.30;;
64031;SDS011;50278;47.796;11.968;2023-03-03T03:09:20;23.73;;;15.38;;
64031;SDS011;50278;47.796;11.968;2023-03-03T03:11:49;25.73;;;15.80;;
64031;SDS011;50278;47.796;11.968;2023-03-03T03:14:18;27.23;;;18.00;;
64031;SDS011;50278;47.796;11.968;2023-03-03T03:16:44;23.98;;;16.27;;
64031;SDS011;50278;47.796;11.968;2023-03-03T03:19:09;24.20;;;15.45;;
64031;SDS011;50278;47.796;11.968;2023-03-03T03:21:36;24.40;;;16.30;;
64031;SDS011;50278;47.796;11.968;2023-03-03T03:24:03;22.85;;;15.23;;
64031;SDS011;50278;47.796;11.968;2023-03-03T03:26:30;26.88;;;16.70;;
64031;SDS011;50278;47.796;11.968;2023-03-03T03:28:56;26.85;;;16.85;;
64031;SDS011;50278;47.796;11.968;2023-03-03T03:31:22;29.13;;;17.52;;
64031;SDS011;50278;47.796;11.968;2023-03-03T03:33:47;29.50;;;17.20;;
64031;SDS011;50278;47.796;11.968;2023-03-03T03:36:14;30.58;;;17.58;;
64031;SDS011;50278;47.796;11.968;2023-03-03T03:38:41;30.42;;;17.08;;
64031;SDS011;50278;47.796;11.968;2023-03-03T03:41:07;28.73;;;18.27;;
64031;SDS011;50278;47.796;11.968;2023-03-03T03:43:34;30.17;;;17.33;;
64031;SDS011;50278;47.796;11.968;2023-03-03T03:46:01;28.40;;;17.08;;
64031;SDS011;50278;47.796;11.968;2023-03-03T03:48:26;28.92;;;17.52;;
64031;SDS011;50278;47.796;11.968;2023-03-03T03:50:53;32.05;;;18.23;;
64031;SDS011;50278;47.796;11.968;2023-03-03T03:53:19;34.78;;;19.65;;
64031;SDS011;50278;47.796;11.968;2023-03-03T03:55:45;35.92;;;20.42;;
64031;SDS011;50278;47.796;11.968;2023-03-03T03:58:13;38.13;;;22.70;;
64031;SDS011;50278;47.796;11.968;2023-03-03T04:00:40;38.63;;;22.63;;
64031;SDS011;50278;47.796;11.968;2023-03-03T04:03:07;40.33;;;22.38;;
64031;SDS011;50278;47.796;11.968;2023-03-03T04:05:33;39.65;;;22.08;;
64031;SDS011;50278;47.796;11.968;2023-03-03T04:07:59;30.85;;;18.63;;
64031;SDS011;50278;47.796;11.968;2023-03-03T04:10:25;32.22;;;20.58;;
64031;SDS011;50278;47.796;11.968;2023-03-03T04:12:51;29.48;;;18.77;;
64031;SDS011;50278;47.796;11.968;2023-03-03T04:15:17;27.60;;;17.88;;
64031;SDS011;50278;47.796;11.968;2023-03-03T04:17:43;35.28;;;19.55;;
64031;SDS011;50278;47.796;11.968;2023-03-03T04:20:10;31.52;;;19.33;;
64031;SDS011;50278;47.796;11.968;2023-03-03T04:22:37;31.20;;;18.80;;
64031;SDS011;50278;47.796;11.968;2023-03-03T04:25:04;27.70;;;18.27;;
64031;SDS011;50278;47.796;11.968;2023-03-03T04:30:03;24.17;;;16.05;;
64031;SDS011;50278;47.796;11.968;2023-03-03T04:32:30;28.85;;;17.90;;
64031;SDS011;50278;47.796;11.968;2023-03-03T04:34:58;28.17;;;17.10;;
64031;SDS011;50278;47.796;11.968;2023-03-03T04:37:25;30.48;;;19.48;;
64031;SDS011;50278;47.796;11.968;2023-03-03T04:39:50;28.58;;;18.65;;
64031;SDS011;50278;47.796;11.968;2023-03-03T04:42:16;23.30;;;16.00;;
64031;SDS011;50278;47.796;11.968;2023-03-03T04:44:42;30.60;;;18.45;;
64031;SDS011;50278;47.796;11.968;2023-03-03T04:47:07;28.98;;;18.40;;
64031;SDS011;50278;47.796;11.968;2023-03-03T04:49:33;29.52;;;17.77;;
64031;SDS011;50278;47.796;11.968;2023-03-03T04:51:58;30.50;;;18.60;;
64031;SDS011;50278;47.796;11.968;2023-03-03T04:54:24;29.35;;;18.15;;
64031;SDS011;50278;47.796;11.968;2023-03-03T04:56:50;25.95;;;16.85;;
64031;SDS011;50278;47.796;11.968;2023-03-03T04:59:16;30.65;;;18.05;;
64031;SDS011;50278;47.796;11.968;2023-03-03T05:01:42;28.88;;;18.13;;
64031;SDS011;50278;47.796;11.968;2023-03-03T05:04:08;28.20;;;19.23;;
64031;SDS011;50278;47.796;11.968;2023-03-03T05:06:33;27.73;;;17.63;;
64031;SDS011;50278;47.796;11.968;2023-03-03T05:08:59;29.08;;;17.73;;
64031;SDS011;50278;47.796;11.968;2023-03-03T05:11:24;24.95;;;16.00;;
64031;SDS011;50278;47.796;11.968;2023-03-03T05:13:50;26.00;;;17.10;;
64031;SDS011;50278;47.796;11.968;2023-03-03T05:16:16;26.38;;;17.02;;
64031;SDS011;50278;47.796;11.968;2023-03-03T05:18:42;26.55;;;16.25;;
64031;SDS011;50278;47.796;11.968;2023-03-03T05:21:07;26.85;;;16.60;;
64031;SDS011;50278;47.796;11.968;2023-03-03T05:23:33;26.02;;;17.30;;
64031;SDS011;50278;47.796;11.968;2023-03-03T05:25:58;25.20;;;16.50;;
64031;SDS011;50278;47.796;11.968;2023-03-03T05:28:24;28.33;;;17.90;;
64031;SDS011;50278;47.796;11.968;2023-03-03T05:30:50;28.92;;;18.27;;
64031;SDS011;50278;47.796;11.968;2023-03-03T05:33:15;25.42;;;16.95;;
64031;SDS011;50278;47.796;11.968;2023-03-03T05:35:41;28.77;;;18.17;;
64031;SDS011;50278;47.796;11.968;2023-03-03T05:38:07;27.58;;;17.55;;
64031;SDS011;50278;47.796;11.968;2023-03-03T05:40:33;30.05;;;18.50;;
64031;SDS011;50278;47.796;11.968;2023-03-03T05:42:59;26.70;;;17.60;;
64031;SDS011;50278;47.796;11.968;2023-03-03T05:45:24;27.38;;;17.88;;
64031;SDS011;50278;47.796;11.968;2023-03-03T05:47:50;28.10;;;19.00;;
64031;SDS011;50278;47.796;11.968;2023-03-03T05:50:17;27.83;;;18.63;;
64031;SDS011;50278;47.796;11.968;2023-03-03T05:52:48;29.40;;;18.35;;
64031;SDS011;50278;47.796;11.968;2023-03-03T05:55:22;25.95;;;17.55;;
64031;SDS011;50278;47.796;11.968;2023-03-03T05:57:48;27.33;;;18.08;;
64031;SDS011;50278;47.796;11.968;2023-03-03T06:00:14;27.95;;;17.77;;
64031;SDS011;50278;47.796;11.968;2023-03-03T06:02:40;24.60;;;17.70;;
64031;SDS011;50278;47.796;11.968;2023-03-03T06:05:06;27.02;;;17.48;;
64031;SDS011;50278;47.796;11.968;2023-03-03T06:07:33;25.20;;;17.33;;
64031;SDS011;50278;47.796;11.968;2023-03-03T06:09:59;28.27;;;19.15;;
64031;SDS011;50278;47.796;11.968;2023-03-03T06:12:25;27.08;;;19.23;;
64031;SDS011;50278;47.796;11.968;2023-03-03T06:14:50;28.80;;;18.80;;
64031;SDS011;50278;47.796;11.968;2023-03-03T06:17:16;24.85;;;17.75;;
64031;SDS011;50278;47.796;11.968;2023-03-03T06:19:41;29.10;;;19.13;;
64031;SDS011;50278;47.796;11.968;2023-03-03T06:22:07;28.50;;;18.90;;
64031;SDS011;50278;47.796;11.968;2023-03-03T06:24:33;30.05;;;18.58;;
64031;SDS011;50278;47.796;11.968;2023-03-03T06:26:59;28.77;;;19.40;;
64031;SDS011;50278;47.796;11.968;2023-03-03T06:29:25;30.17;;;19.08;;
64031;SDS011;50278;47.796;11.968;2023-03-03T06:31:52;29.02;;;19.52;;
64031;SDS011;50278;47.796;11.968;2023-03-03T06:34:17;31.42;;;20.35;;
64031;SDS011;50278;47.796;11.968;2023-03-03T06:36:43;29.55;;;19.27;;
64031;SDS011;50278;47.796;11.968;2023-03-03T06:39:09;30.17;;;19.55;;
64031;SDS011;50278;47.796;11.968;2023-03-03T06:41:34;27.05;;;18.95;;
64031;SDS011;50278;47.796;11.968;2023-03-03T06:44:00;30.73;;;18.25;;
64031;SDS011;50278;47.796;11.968;2023-03-03T06:46:26;29.42;;;18.38;;
64031;SDS011;50278;47.796;11.968;2023-03-03T06:48:52;23.83;;;15.85;;
64031;SDS011;50278;47.796;11.968;2023-03-03T06:53:46;26.77;;;16.83;;
64031;SDS011;50278;47.796;11.968;2023-03-03T06:56:12;25.33;;;16.65;;
64031;SDS011;50278;47.796;11.968;2023-03-03T06:58:38;25.67;;;16.77;;
64031;SDS011;50278;47.796;11.968;2023-03-03T07:01:04;26.70;;;17.35;;
64031;SDS011;50278;47.796;11.968;2023-03-03T07:03:39;29.50;;;17.00;;
64031;SDS011;50278;47.796;11.968;2023-03-03T07:06:07;26.33;;;17.27;;
64031;SDS011;50278;47.796;11.968;2023-03-03T07:08:44;25.42;;;16.40;;
64031;SDS011;50278;47.796;11.968;2023-03-03T07:11:10;23.23;;;15.88;;
64031;SDS011;50278;47.796;11.968;2023-03-03T07:13:41;21.77;;;15.20;;
64031;SDS011;50278;47.796;11.968;2023-03-03T07:16:11;28.40;;;17.23;;
64031;SDS011;50278;47.796;11.968;2023-03-03T07:21:13;26.88;;;17.02;;
64031;SDS011;50278;47.796;11.968;2023-03-03T07:23:44;25.88;;;15.68;;
64031;SDS011;50278;47.796;11.968;2023-03-03T07:26:33;25.48;;;16.42;;
64031;SDS011;50278;47.796;11.968;2023-03-03T07:31:45;29.08;;;18.70;;
64031;SDS011;50278;47.796;11.968;2023-03-03T07:34:22;25.30;;;16.55;;
64031;SDS011;50278;47.796;11.968;2023-03-03T07:36:49;24.83;;;15.80;;
64031;SDS011;50278;47.796;11.968;2023-03-03T07:39:27;29.05;;;16.70;;
64031;SDS011;50278;47.796;11.968;2023-03-03T07:44:53;24.52;;;15.50;;
64031;SDS011;50278;47.796;11.968;2023-03-03T07:47:23;26.90;;;16.42;;
64031;SDS011;50278;47.796;11.968;2023-03-03T07:49:54;26.05;;;15.80;;
64031;SDS011;50278;47.796;11.968;2023-03-03T07:52:49;25.38;;;16.30;;
64031;SDS011;50278;47.796;11.968;2023-03-03T07:57:58;27.10;;;17.35;;
64031;SDS011;50278;47.796;11.968;2023-03-03T08:03:16;29.63;;;18.75;;
64031;SDS011;50278;47.796;11.968;2023-03-03T08:05:45;27.33;;;17.35;;
64031;SDS011;50278;47.796;11.968;2023-03-03T08:11:01;30.25;;;18.40;;
64031;SDS011;50278;47.796;11.968;2023-03-03T08:13:28;28.17;;;17.67;;
64031;SDS011;50278;47.796;11.968;2023-03-03T08:18:34;19.35;;;12.48;;
64031;SDS011;50278;47.796;11.968;2023-03-03T08:21:07;23.73;;;15.95;;
64031;SDS011;50278;47.796;11.968;2023-03-03T08:23:36;24.58;;;16.17;;
64031;SDS011;50278;47.796;11.968;2023-03-03T08:26:02;27.27;;;18.15;;
64031;SDS011;50278;47.796;11.968;2023-03-03T08:28:27;29.17;;;18.63;;
64031;SDS011;50278;47.796;11.968;2023-03-03T08:30:53;27.95;;;18.77;;
64031;SDS011;50278;47.796;11.968;2023-03-03T08:33:19;30.38;;;20.08;;
64031;SDS011;50278;47.796;11.968;2023-03-03T08:35:44;32.70;;;20.80;;
64031;SDS011;50278;47.796;11.968;2023-03-03T08:38:11;29.95;;;20.80;;
64031;SDS011;50278;47.796;11.968;2023-03-03T08:40:39;25.52;;;18.17;;
64031;SDS011;50278;47.796;11.968;2023-03-03T08:43:05;26.20;;;17.95;;
64031;SDS011;50278;47.796;11.968;2023-03-03T08:45:32;26.27;;;18.88;;
64031;SDS011;50278;47.796;11.968;2023-03-03T08:47:57;25.92;;;18.83;;
64031;SDS011;50278;47.796;11.968;2023-03-03T08:50:24;28.27;;;19.50;;
64031;SDS011;50278;47.796;11.968;2023-03-03T08:52:50;26.65;;;18.85;;
64031;SDS011;50278;47.796;11.968;2023-03-03T08:55:16;27.48;;;17.88;;
64031;SDS011;50278;47.796;11.968;2023-03-03T08:57:42;25.33;;;18.38;;
64031;SDS011;50278;47.796;11.968;2023-03-03T09:00:09;27.38;;;19.02;;
64031;SDS011;50278;47.796;11.968;2023-03-03T09:02:36;28.33;;;19.13;;
64031;SDS011;50278;47.796;11.968;2023-03-03T09:05:02;26.80;;;18.70;;
64031;SDS011;50278;47.796;11.968;2023-03-03T09:07:28;31.23;;;20.00;;
64031;SDS011;50278;47.796;11.968;2023-03-03T09:09:54;30.45;;;19.60;;
64031;SDS011;50278;47.796;11.968;2023-03-03T09:12:30;30.35;;;20.88;;
64031;SDS011;50278;47.796;11.968;2023-03-03T09:14:59;27.80;;;18.85;;
64031;SDS011;50278;47.796;11.968;2023-03-03T09:17:36;27.45;;;19.67;;
64031;SDS011;50278;47.796;11.968;2023-03-03T09:20:26;29.00;;;20.08;;
64031;SDS011;50278;47.796;11.968;2023-03-03T09:22:57;30.92;;;20.88;;
64031;SDS011;50278;47.796;11.968;2023-03-03T09:25:30;28.80;;;20.73;;
64031;SDS011;50278;47.796;11.968;2023-03-03T09:28:00;32.78;;;18.58;;
64031;SDS011;50278;47.796;11.968;2023-03-03T09:33:23;30.30;;;19.45;;
64031;SDS011;50278;47.796;11.968;2023-03-03T09:35:58;25.90;;;18.02;;
64031;SDS011;50278;47.796;11.968;2023-03-03T09:38:30;27.77;;;18.33;;
64031;SDS011;50278;47.796;11.968;2023-03-03T09:51:58;26.77;;;19.02;;
64031;SDS011;50278;47.796;11.968;2023-03-03T09:57:23;24.05;;;16.75;;
64031;SDS011;50278;47.796;11.968;2023-03-03T10:13:45;26.05;;;17.15;;
64031;SDS011;50278;47.796;11.968;2023-03-03T10:16:39;24.20;;;17.30;;
64031;SDS011;50278;47.796;11.968;2023-03-03T10:25:00;27.88;;;19.00;;
64031;SDS011;50278;47.796;11.968;2023-03-03T10:30:24;25.55;;;17.42;;
64031;SDS011;50278;47.796;11.968;2023-03-03T10:33:21;27.10;;;18.90;;
64031;SDS011;50278;47.796;11.968;2023-03-03T10:52:05;26.15;;;18.08;;
64031;SDS011;50278;47.796;11.968;2023-03-03T10:55:34;28.35;;;18.65;;
64031;SDS011;50278;47.796;11.968;2023-03-03T11:00:30;26.05;;;19.17;;
64031;SDS011;50278;47.796;11.968;2023-03-03T11:06:05;27.13;;;19.33;;
64031;SDS011;50278;47.796;11.968;2023-03-03T11:14:46;26.85;;;20.02;;
64031;SDS011;50278;47.796;11.968;2023-03-03T11:17:28;25.92;;;18.75;;
64031;SDS011;50278;47.796;11.968;2023-03-03T11:22:46;26.20;;;18.50;;
64031;SDS011;50278;47.796;11.968;2023-03-03T11:36:33;23.42;;;17.95;;
64031;SDS011;50278;47.796;11.968;2023-03-03T11:39:08;26.00;;;18.85;;
64031;SDS011;50278;47.796;11.968;2023-03-03T11:41:49;26.02;;;18.00;;
64031;SDS011;50278;47.796;11.968;2023-03-03T11:44:40;23.17;;;17.40;;
64031;SDS011;50278;47.796;11.968;2023-03-03T12:00:46;25.75;;;19.95;;
64031;SDS011;50278;47.796;11.968;2023-03-03T12:17:25;25.90;;;19.02;;
64031;SDS011;50278;47.796;11.968;2023-03-03T12:25:37;27.92;;;19.73;;
64031;SDS011;50278;47.796;11.968;2023-03-03T12:44:01;29.65;;;20.65;;
64031;SDS011;50278;47.796;11.968;2023-03-03T12:46:48;27.05;;;19.50;;
64031;SDS011;50278;47.796;11.968;2023-03-03T12:49:16;26.95;;;19.45;;
64031;SDS011;50278;47.796;11.968;2023-03-03T12:51:45;25.08;;;19.30;;
64031;SDS011;50278;47.796;11.968;2023-03-03T12:57:16;26.45;;;20.13;;
64031;SDS011;50278;47.796;11.968;2023-03-03T13:11:06;28.15;;;19.60;;
64031;SDS011;50278;47.796;11.968;2023-03-03T13:13:42;27.75;;;20.85;;
64031;SDS011;50278;47.796;11.968;2023-03-03T13:16:14;27.65;;;19.65;;
64031;SDS011;50278;47.796;11.968;2023-03-03T13:18:52;29.30;;;20.02;;
64031;SDS011;50278;47.796;11.968;2023-03-03T13:24:18;27.15;;;19.77;;
64031;SDS011;50278;47.796;11.968;2023-03-03T13:29:40;28.17;;;19.70;;
64031;SDS011;50278;47.796;11.968;2023-03-03T13:32:11;27.95;;;19.50;;
64031;SDS011;50278;47.796;11.968;2023-03-03T13:34:50;28.27;;;20.02;;
64031;SDS011;50278;47.796;11.968;2023-03-03T13:37:37;30.15;;;20.60;;
64031;SDS011;50278;47.796;11.968;2023-03-03T13:42:57;27.77;;;20.65;;
64031;SDS011;50278;47.796;11.968;2023-03-03T13:48:05;30.02;;;21.48;;
64031;SDS011;50278;47.796;11.968;2023-03-03T13:50:50;28.70;;;20.45;;
64031;SDS011;50278;47.796;11.968;2023-03-03T14:01:12;30.05;;;19.63;;
64031;SDS011;50278;47.796;11.968;2023-03-03T14:03:52;23.95;;;19.30;;
64031;SDS011;50278;47.796;11.968;2023-03-03T14:06:27;30.02;;;22.42;;
64031;SDS011;50278;47.796;11.968;2023-03-03T14:11:47;25.42;;;19.48;;
64031;SDS011;50278;47.796;11.968;2023-03-03T14:14:27;29.00;;;20.25;;
64031;SDS011;50278;47.796;11.968;2023-03-03T14:22:45;26.55;;;19.98;;
64031;SDS011;50278;47.796;11.968;2023-03-03T14:25:16;28.95;;;20.70;;
64031;SDS011;50278;47.796;11.968;2023-03-03T14:30:32;26.85;;;20.48;;
64031;SDS011;50278;47.796;11.968;2023-03-03T14:33:12;29.98;;;20.65;;
64031;SDS011;50278;47.796;11.968;2023-03-03T14:35:59;25.92;;;19.65;;
64031;SDS011;50278;47.796;11.968;2023-03-03T14:41:10;28.92;;;19.88;;
64031;SDS011;50278;47.796;11.968;2023-03-03T14:43:43;24.65;;;20.02;;
64031;SDS011;50278;47.796;11.968;2023-03-03T14:46:33;27.27;;;20.05;;
64031;SDS011;50278;47.796;11.968;2023-03-03T14:49:27;26.58;;;18.58;;
64031;SDS011;50278;47.796;11.968;2023-03-03T14:52:00;27.92;;;19.02;;
64031;SDS011;50278;47.796;11.968;2023-03-03T14:54:38;27.67;;;19.83;;
64031;SDS011;50278;47.796;11.968;2023-03-03T14:57:12;28.95;;;19.92;;
64031;SDS011;50278;47.796;11.968;2023-03-03T15:00:05;28.10;;;20.67;;
64031;SDS011;50278;47.796;11.968;2023-03-03T15:02:39;29.33;;;19.77;;
64031;SDS011;50278;47.796;11.968;2023-03-03T15:05:26;26.75;;;18.83;;
64031;SDS011;50278;47.796;11.968;2023-03-03T15:07:54;27.08;;;19.92;;
64031;SDS011;50278;47.796;11.968;2023-03-03T15:10:27;29.10;;;19.75;;
64031;SDS011;50278;47.796;11.968;2023-03-03T15:12:56;25.83;;;19.70;;
64031;SDS011;50278;47.796;11.968;2023-03-03T15:15:25;27.75;;;19.77;;
64031;SDS011;50278;47.796;11.968;2023-03-03T15:26:17;26.13;;;20.08;;
64031;SDS011;50278;47.796;11.968;2023-03-03T15:34:43;25.95;;;18.85;;
64031;SDS011;50278;47.796;11.968;2023-03-03T15:48:32;35.47;;;21.65;;
64031;SDS011;50278;47.796;11.968;2023-03-03T15:57:23;35.25;;;24.08;;
64031;SDS011;50278;47.796;11.968;2023-03-03T16:05:22;33.33;;;23.55;;
64031;SDS011;50278;47.796;11.968;2023-03-03T16:07:58;34.15;;;26.48;;
64031;SDS011;50278;47.796;11.968;2023-03-03T16:16:09;33.08;;;20.63;;
64031;SDS011;50278;47.796;11.968;2023-03-03T16:19:02;33.97;;;20.05;;
64031;SDS011;50278;47.796;11.968;2023-03-03T16:30:27;32.42;;;22.42;;
64031;SDS011;50278;47.796;11.968;2023-03-03T16:35:35;35.72;;;22.60;;
64031;SDS011;50278;47.796;11.968;2023-03-03T16:41:12;30.70;;;21.00;;
64031;SDS011;50278;47.796;11.968;2023-03-03T16:44:08;35.42;;;22.70;;
64031;SDS011;50278;47.796;11.968;2023-03-03T16:46:48;36.03;;;22.67;;
64031;SDS011;50278;47.796;11.968;2023-03-03T16:49:24;38.20;;;21.60;;
64031;SDS011;50278;47.796;11.968;2023-03-03T16:52:14;36.65;;;22.67;;
64031;SDS011;50278;47.796;11.968;2023-03-03T16:54:57;37.50;;;23.33;;
64031;SDS011;50278;47.796;11.968;2023-03-03T16:57:41;35.45;;;23.55;;
64031;SDS011;50278;47.796;11.968;2023-03-03T17:00:23;38.45;;;23.17;;
64031;SDS011;50278;47.796;11.968;2023-03-03T17:02:57;36.00;;;23.42;;
64031;SDS011;50278;47.796;11.968;2023-03-03T17:05:54;37.72;;;22.27;;
64031;SDS011;50278;47.796;11.968;2023-03-03T17:11:26;37.65;;;24.00;;
64031;SDS011;50278;47.796;11.968;2023-03-03T17:16:55;41.85;;;25.00;;
64031;SDS011;50278;47.796;11.968;2023-03-03T17:22:28;47.15;;;27.42;;
64031;SDS011;50278;47.796;11.968;2023-03-03T17:25:34;45.42;;;27.15;;
64031;SDS011;50278;47.796;11.968;2023-03-03T17:28:22;44.00;;;27.35;;
64031;SDS011;50278;47.796;11.968;2023-03-03T17:31:18;46.65;;;26.88;;
64031;SDS011;50278;47.796;11.968;2023-03-03T17:34:03;47.13;;;27.38;;
64031;SDS011;50278;47.796;11.968;2023-03-03T17:37:15;48.53;;;27.80;;
64031;SDS011;50278;47.796;11.968;2023-03-03T17:45:15;46.70;;;27.23;;
64031;SDS011;50278;47.796;11.968;2023-03-03T17:47:46;50.85;;;30.02;;
64031;SDS011;50278;47.796;11.968;2023-03-03T17:50:30;49.38;;;28.58;;
64031;SDS011;50278;47.796;11.968;2023-03-03T17:56:15;46.33;;;26.58;;
64031;SDS011;50278;47.796;11.968;2023-03-03T18:08:01;55.65;;;28.70;;
64031;SDS011;50278;47.796;11.968;2023-03-03T18:10:51;49.47;;;29.33;;
64031;SDS011;50278;47.796;11.968;2023-03-03T18:16:14;53.10;;;28.42;;
64031;SDS011;50278;47.796;11.968;2023-03-03T18:19:14;53.03;;;27.33;;
64031;SDS011;50278;47.796;11.968;2023-03-03T18:26:49;55.85;;;27.88;;
64031;SDS011;50278;47.796;11.968;2023-03-03T18:32:15;55.00;;;32.08;;
64031;SDS011;50278;47.796;11.968;2023-03-03T18:34:43;53.67;;;28.08;;
64031;SDS011;50278;47.796;11.968;2023-03-03T18:42:41;54.38;;;30.13;;
64031;SDS011;50278;47.796;11.968;2023-03-03T18:53:11;61.03;;;31.65;;
64031;SDS011;50278;47.796;11.968;2023-03-03T18:55:44;56.80;;;30.65;;
64031;SDS011;50278;47.796;11.968;2023-03-03T19:00:56;60.45;;;33.50;;
64031;SDS011;50278;47.796;11.968;2023-03-03T19:06:11;59.78;;;31.55;;
64031;SDS011;50278;47.796;11.968;2023-03-03T19:11:50;60.72;;;30.63;;
64031;SDS011;50278;47.796;11.968;2023-03-03T19:16:57;60.28;;;30.60;;
64031;SDS011;50278;47.796;11.968;2023-03-03T19:22:38;56.15;;;29.88;;
64031;SDS011;50278;47.796;11.968;2023-03-03T19:25:15;56.95;;;31.10;;
64031;SDS011;50278;47.796;11.968;2023-03-03T19:27:46;56.92;;;31.60;;
64031;SDS011;50278;47.796;11.968;2023-03-03T19:33:24;62.60;;;28.75;;
64031;SDS011;50278;47.796;11.968;2023-03-03T19:46:59;62.58;;;33.97;;
64031;SDS011;50278;47.796;11.968;2023-03-03T19:52:09;70.05;;;33.38;;
64031;SDS011;50278;47.796;11.968;2023-03-03T20:00:09;74.82;;;35.83;;
64031;SDS011;50278;47.796;11.968;2023-03-03T20:20:33;85.55;;;37.35;;
64031;SDS011;50278;47.796;11.968;2023-03-03T20:31:04;69.82;;;36.10;;
64031;SDS011;50278;47.796;11.968;2023-03-03T20:45:12;69.88;;;37.13;;
64031;SDS011;50278;47.796;11.968;2023-03-03T20:50:52;60.63;;;32.33;;
64031;SDS011;50278;47.796;11.968;2023-03-03T20:53:33;68.53;;;34.58;;
64031;SDS011;50278;47.796;11.968;2023-03-03T20:56:28;67.10;;;34.20;;
64031;SDS011;50278;47.796;11.968;2023-03-03T21:04:40;58.95;;;33.47;;
64031;SDS011;50278;47.796;11.968;2023-03-03T21:07:06;55.35;;;31.40;;
64031;SDS011;50278;47.796;11.968;2023-03-03T21:09:32;52.05;;;30.30;;
64031;SDS011;50278;47.796;11.968;2023-03-03T21:12:01;56.20;;;31.60;;
64031;SDS011;50278;47.796;11.968;2023-03-03T21:14:34;55.13;;;31.08;;
64031;SDS011;50278;47.796;11.968;2023-03-03T21:17:01;48.75;;;27.67;;
64031;SDS011;50278;47.796;11.968;2023-03-03T21:19:48;55.13;;;28.73;;
64031;SDS011;50278;47.796;11.968;2023-03-03T21:22:13;55.78;;;31.58;;